createdAt,value
2022-12-31T00:00:15.155Z,6.57
2022-12-31T00:02:43.073Z,6.57
2022-12-31T00:05:10.747Z,7.11
2022-12-31T00:10:04.916Z,6.77
2022-12-31T00:12:32.445Z,6.37
2022-12-31T00:14:59.807Z,6.81
2022-12-31T00:17:27.507Z,6.10
2022-12-31T00:19:54.860Z,6.84
2022-12-31T00:22:22.182Z,5.87
2022-12-31T00:24:49.835Z,5.65
2022-12-31T00:27:17.234Z,6.32
2022-12-31T00:29:44.585Z,6.69
2022-12-31T00:32:12.309Z,6.48
2022-12-31T00:34:39.663Z,6.48
2022-12-31T00:37:07.014Z,6.20
2022-12-31T00:39:34.832Z,5.79
2022-12-31T00:42:02.628Z,6.20
2022-12-31T00:44:29.996Z,6.34
2022-12-31T00:46:57.630Z,6.22
2022-12-31T00:49:25.122Z,6.29
2022-12-31T00:51:52.462Z,5.93
2022-12-31T00:54:20.141Z,6.33
2022-12-31T00:56:47.497Z,6.49
2022-12-31T00:59:14.852Z,6.86
2022-12-31T01:01:42.755Z,6.71
2022-12-31T01:04:12.704Z,6.67
2022-12-31T01:06:40.327Z,5.94
2022-12-31T01:09:08.249Z,6.02
2022-12-31T01:11:35.656Z,5.87
2022-12-31T01:14:05.226Z,6.27
2022-12-31T01:16:47.606Z,6.04
2022-12-31T01:19:26.084Z,6.42
2022-12-31T01:21:53.794Z,6.71
2022-12-31T01:24:21.237Z,6.89
2022-12-31T01:26:51.214Z,7.04
2022-12-31T01:29:18.894Z,6.91
2022-12-31T01:31:46.253Z,6.49
2022-12-31T01:34:13.708Z,7.14
2022-12-31T01:36:41.297Z,7.48
2022-12-31T01:39:08.872Z,7.17
2022-12-31T01:41:41.092Z,6.98
2022-12-31T01:44:11.652Z,6.33
2022-12-31T01:46:45.657Z,7.05
2022-12-31T01:49:35.213Z,7.12
2022-12-31T01:52:30.234Z,6.88
2022-12-31T01:55:25.669Z,6.77
2022-12-31T01:57:55.123Z,7.28
2022-12-31T02:00:22.793Z,6.13
2022-12-31T02:02:50.522Z,6.77
2022-12-31T02:05:32.016Z,6.91
2022-12-31T02:07:59.719Z,6.62
2022-12-31T02:10:27.062Z,6.59
2022-12-31T02:12:54.389Z,5.78
2022-12-31T02:15:23.254Z,6.80
2022-12-31T02:18:00.699Z,6.35
2022-12-31T02:20:40.527Z,6.35
2022-12-31T02:23:19.132Z,6.91
2022-12-31T02:25:55.874Z,6.98
2022-12-31T02:29:04.439Z,6.58
2022-12-31T02:31:35.010Z,6.69
2022-12-31T02:34:08.046Z,6.61
2022-12-31T02:36:37.443Z,5.28
2022-12-31T02:39:04.896Z,6.09
2022-12-31T02:41:50.449Z,5.78
2022-12-31T02:44:29.768Z,6.07
2022-12-31T02:47:09.214Z,5.45
2022-12-31T02:49:42.114Z,6.31
2022-12-31T02:52:18.140Z,6.47
2022-12-31T02:54:59.131Z,6.94
2022-12-31T02:57:35.394Z,7.00
2022-12-31T03:00:26.820Z,6.31
2022-12-31T03:02:54.393Z,6.60
2022-12-31T03:05:24.270Z,6.61
2022-12-31T03:07:51.594Z,5.94
2022-12-31T03:10:19.139Z,6.04
2022-12-31T03:12:49.610Z,5.81
2022-12-31T03:15:25.805Z,6.26
2022-12-31T03:18:06.696Z,7.10
2022-12-31T03:21:04.020Z,7.20
2022-12-31T03:23:40.198Z,7.13
2022-12-31T03:26:12.490Z,6.52
2022-12-31T03:28:41.474Z,6.73
2022-12-31T03:31:09.058Z,6.58
2022-12-31T03:33:38.270Z,6.40
2022-12-31T03:36:10.977Z,6.79
2022-12-31T03:38:38.397Z,6.40
2022-12-31T03:41:06.024Z,6.52
2022-12-31T03:43:33.513Z,6.94
2022-12-31T03:46:01.702Z,7.04
2022-12-31T03:48:29.958Z,6.96
2022-12-31T03:50:57.501Z,6.57
2022-12-31T03:53:24.834Z,6.39
2022-12-31T03:55:53.140Z,6.29
2022-12-31T03:58:21.124Z,6.34
2022-12-31T04:00:48.569Z,6.40
2022-12-31T04:03:16.348Z,6.88
2022-12-31T04:05:43.831Z,7.13
2022-12-31T04:08:11.204Z,6.27
2022-12-31T04:10:38.826Z,6.38
2022-12-31T04:13:06.168Z,6.65
2022-12-31T04:15:33.521Z,6.69
2022-12-31T04:18:01.160Z,6.92
2022-12-31T04:20:28.552Z,6.36
2022-12-31T04:22:55.876Z,7.10
2022-12-31T04:25:23.465Z,7.29
2022-12-31T04:27:51.578Z,6.98
2022-12-31T04:30:18.948Z,7.29
2022-12-31T04:32:46.552Z,7.40
2022-12-31T04:35:13.919Z,7.18
2022-12-31T04:37:41.272Z,6.33
2022-12-31T04:40:09.208Z,6.22
2022-12-31T04:42:36.753Z,6.24
2022-12-31T04:45:04.549Z,6.24
2022-12-31T04:47:32.303Z,6.59
2022-12-31T04:49:59.765Z,6.72
2022-12-31T04:52:27.997Z,7.06
2022-12-31T04:54:55.631Z,7.25
2022-12-31T04:57:23.048Z,6.60
2022-12-31T04:59:50.391Z,6.97
2022-12-31T05:02:18.215Z,6.82
2022-12-31T05:04:45.696Z,6.93
2022-12-31T05:07:13.033Z,7.26
2022-12-31T05:09:40.701Z,6.79
2022-12-31T05:12:08.127Z,6.41
2022-12-31T05:14:35.552Z,6.00
2022-12-31T05:17:03.233Z,6.05
2022-12-31T05:19:30.639Z,6.76
2022-12-31T05:22:27.445Z,7.07
2022-12-31T05:24:55.199Z,7.33
2022-12-31T05:27:22.606Z,6.77
2022-12-31T05:29:50.053Z,7.23
2022-12-31T05:32:17.746Z,7.10
2022-12-31T05:34:45.122Z,7.06
2022-12-31T05:37:12.473Z,7.36
2022-12-31T05:39:40.199Z,7.45
2022-12-31T05:42:07.528Z,7.43
2022-12-31T05:44:34.939Z,7.64
2022-12-31T05:47:02.589Z,7.58
2022-12-31T05:49:30.069Z,7.72
2022-12-31T05:51:57.407Z,7.76
2022-12-31T05:54:25.050Z,7.01
2022-12-31T05:56:52.418Z,7.27
2022-12-31T05:59:19.807Z,6.87
2022-12-31T06:01:47.758Z,7.38
2022-12-31T06:04:15.472Z,7.58
2022-12-31T06:06:42.804Z,7.67
2022-12-31T06:09:11.582Z,7.67
2022-12-31T06:11:39.188Z,7.80
2022-12-31T06:14:06.512Z,6.73
2022-12-31T06:16:33.876Z,7.13
2022-12-31T06:19:02.384Z,7.41
2022-12-31T06:21:29.923Z,7.44
2022-12-31T06:23:58.730Z,6.78
2022-12-31T06:26:26.914Z,7.36
2022-12-31T06:28:54.256Z,7.60
2022-12-31T06:31:21.761Z,7.91
2022-12-31T06:33:49.418Z,7.85
2022-12-31T06:36:16.913Z,7.85
2022-12-31T06:38:44.411Z,7.59
2022-12-31T06:41:13.305Z,7.41
2022-12-31T06:43:40.658Z,7.45
2022-12-31T06:46:09.791Z,7.96
2022-12-31T06:48:37.626Z,7.66
2022-12-31T06:51:15.013Z,7.19
2022-12-31T06:53:45.704Z,7.45
2022-12-31T06:56:17.969Z,7.64
2022-12-31T06:58:46.268Z,7.89
2022-12-31T07:01:51.404Z,7.93
2022-12-31T07:04:43.660Z,8.11
2022-12-31T07:07:24.973Z,7.82
2022-12-31T07:09:57.693Z,7.18
2022-12-31T07:12:48.567Z,7.49
2022-12-31T07:15:41.544Z,7.89
2022-12-31T07:18:37.542Z,8.17
2022-12-31T07:21:08.619Z,7.05
2022-12-31T07:23:36.075Z,7.83
2022-12-31T07:26:12.319Z,8.06
2022-12-31T07:28:51.334Z,7.63
2022-12-31T07:31:46.131Z,7.89
2022-12-31T07:34:30.106Z,7.93
2022-12-31T07:37:07.228Z,7.98
2022-12-31T07:39:40.305Z,8.16
2022-12-31T07:42:16.891Z,8.15
2022-12-31T07:45:19.297Z,8.37
2022-12-31T07:47:46.945Z,8.45
2022-12-31T07:50:15.791Z,8.36
2022-12-31T07:52:43.843Z,7.56
2022-12-31T07:55:11.384Z,7.61
2022-12-31T07:57:42.829Z,8.03
2022-12-31T08:00:14.058Z,8.26
2022-12-31T08:03:02.998Z,8.42
2022-12-31T08:05:37.034Z,8.56
2022-12-31T08:08:07.153Z,8.59
2022-12-31T08:11:06.261Z,8.74
2022-12-31T08:13:33.752Z,8.75
2022-12-31T08:16:01.989Z,8.66
2022-12-31T08:18:29.525Z,8.73
2022-12-31T08:21:09.472Z,8.43
2022-12-31T08:23:43.916Z,8.64
2022-12-31T08:26:45.821Z,8.56
2022-12-31T08:29:30.893Z,8.14
2022-12-31T08:32:17.474Z,7.84
2022-12-31T08:35:11.375Z,8.45
2022-12-31T08:37:50.899Z,7.78
2022-12-31T08:40:26.082Z,8.34
2022-12-31T08:43:12.583Z,7.86
2022-12-31T08:45:47.856Z,8.14
2022-12-31T08:48:38.869Z,8.62
2022-12-31T08:51:07.159Z,7.80
2022-12-31T08:53:35.091Z,8.24
2022-12-31T08:56:07.778Z,8.33
2022-12-31T08:58:50.538Z,8.60
2022-12-31T09:01:20.668Z,8.54
2022-12-31T09:04:01.382Z,8.56
2022-12-31T09:06:33.941Z,8.67
2022-12-31T09:09:38.283Z,8.96
2022-12-31T09:12:20.896Z,8.75
2022-12-31T09:14:54.922Z,9.07
2022-12-31T09:17:44.945Z,8.83
2022-12-31T09:20:18.991Z,7.71
2022-12-31T09:22:46.407Z,8.33
2022-12-31T09:25:15.751Z,8.87
2022-12-31T09:27:58.376Z,8.77
2022-12-31T09:30:26.439Z,9.05
2022-12-31T09:33:01.423Z,8.77
2022-12-31T09:35:51.432Z,8.99
2022-12-31T09:38:46.176Z,9.19
2022-12-31T09:41:15.620Z,8.88
2022-12-31T09:44:21.285Z,9.02
2022-12-31T09:47:07.587Z,9.06
2022-12-31T09:49:59.302Z,9.68
2022-12-31T09:52:38.845Z,9.66
2022-12-31T09:55:12.125Z,10.08
2022-12-31T09:57:41.537Z,10.04
2022-12-31T10:00:16.462Z,10.30
2022-12-31T10:02:55.638Z,10.17
2022-12-31T10:05:31.139Z,10.54
2022-12-31T10:08:07.955Z,10.22
2022-12-31T10:10:55.384Z,10.36
2022-12-31T10:13:40.815Z,10.23
2022-12-31T10:16:25.402Z,10.50
2022-12-31T10:19:24.108Z,10.65
2022-12-31T10:22:19.080Z,10.56
2022-12-31T10:24:51.473Z,10.83
2022-12-31T10:27:39.761Z,10.91
2022-12-31T10:30:18.767Z,10.51
2022-12-31T10:33:08.103Z,10.80
2022-12-31T10:35:53.944Z,10.84
2022-12-31T10:38:49.587Z,11.07
2022-12-31T10:41:35.427Z,10.92
2022-12-31T10:44:17.678Z,10.99
2022-12-31T10:46:58.523Z,11.08
2022-12-31T10:50:03.585Z,11.04
2022-12-31T10:52:53.138Z,10.86
2022-12-31T10:55:24.909Z,10.69
2022-12-31T10:58:04.374Z,10.84
2022-12-31T11:00:41.396Z,10.91
2022-12-31T11:03:43.784Z,11.19
2022-12-31T11:06:23.232Z,10.87
2022-12-31T11:09:18.815Z,10.51
2022-12-31T11:12:10.737Z,10.81
2022-12-31T11:14:53.137Z,10.78
2022-12-31T11:17:52.982Z,10.36
2022-12-31T11:20:28.520Z,10.61
2022-12-31T11:23:23.815Z,10.49
2022-12-31T11:26:02.849Z,10.68
2022-12-31T11:28:40.791Z,10.91
2022-12-31T11:31:32.793Z,10.78
2022-12-31T11:34:38.552Z,11.16
2022-12-31T11:37:28.371Z,11.17
2022-12-31T11:40:17.748Z,10.40
2022-12-31T11:43:19.847Z,11.01
2022-12-31T11:45:59.061Z,11.05
2022-12-31T11:48:37.407Z,10.91
2022-12-31T11:51:13.697Z,11.20
2022-12-31T11:54:03.716Z,11.46
2022-12-31T11:56:35.696Z,11.64
2022-12-31T11:59:12.097Z,11.40
2022-12-31T12:01:50.842Z,11.28
2022-12-31T12:04:18.512Z,11.46
2022-12-31T12:06:46.067Z,11.56
2022-12-31T12:09:16.876Z,11.64
2022-12-31T12:11:44.573Z,11.70
2022-12-31T12:14:35.397Z,11.71
2022-12-31T12:17:05.514Z,11.98
2022-12-31T12:19:34.311Z,11.96
2022-12-31T12:22:34.269Z,12.01
2022-12-31T12:25:15.946Z,11.88
2022-12-31T12:27:43.639Z,12.04
2022-12-31T12:30:26.835Z,11.91
2022-12-31T12:32:58.724Z,12.09
2022-12-31T12:35:31.685Z,11.91
2022-12-31T12:38:20.432Z,11.75
2022-12-31T12:40:58.846Z,11.98
2022-12-31T12:43:31.131Z,11.95
2022-12-31T12:46:04.142Z,12.05
2022-12-31T12:48:39.495Z,11.77
2022-12-31T12:51:19.235Z,11.85
2022-12-31T12:54:04.271Z,12.22
2022-12-31T12:56:36.400Z,11.75
2022-12-31T12:59:19.454Z,11.94
2022-12-31T13:02:22.188Z,11.82
2022-12-31T13:04:56.582Z,11.88
2022-12-31T13:07:33.400Z,11.49
2022-12-31T13:10:00.618Z,11.82
2022-12-31T13:13:13.856Z,11.01
2022-12-31T13:15:31.855Z,10.46
2022-12-31T13:18:06.129Z,11.12
2022-12-31T13:20:40.112Z,10.86
2022-12-31T13:23:25.233Z,10.62
2022-12-31T13:26:10.670Z,10.97
2022-12-31T13:28:42.340Z,11.34
2022-12-31T13:31:12.664Z,11.53
2022-12-31T13:33:45.387Z,11.59
2022-12-31T13:36:20.608Z,11.52
2022-12-31T13:38:58.897Z,11.60
2022-12-31T13:41:32.878Z,11.79
2022-12-31T13:44:20.614Z,11.62
2022-12-31T13:46:56.145Z,11.59
2022-12-31T13:49:27.227Z,11.56
2022-12-31T13:52:16.058Z,10.69
2022-12-31T13:54:47.701Z,11.03
2022-12-31T13:57:23.856Z,11.06
2022-12-31T13:59:54.970Z,11.45
2022-12-31T14:02:31.474Z,11.65
2022-12-31T14:05:31.516Z,11.49
2022-12-31T14:08:00.527Z,11.16
2022-12-31T14:10:37.227Z,11.40
2022-12-31T14:13:34.781Z,11.55
2022-12-31T14:16:08.387Z,11.34
2022-12-31T14:18:47.164Z,11.62
2022-12-31T14:21:23.143Z,11.64
2022-12-31T14:23:55.937Z,11.72
2022-12-31T14:26:27.969Z,11.60
2022-12-31T14:29:10.299Z,11.72
2022-12-31T14:31:53.967Z,11.66
2022-12-31T14:34:49.803Z,11.50
2022-12-31T14:37:27.893Z,11.79
2022-12-31T14:40:16.942Z,11.33
2022-12-31T14:43:10.325Z,11.27
2022-12-31T14:46:09.815Z,11.49
2022-12-31T14:48:46.465Z,11.46
2022-12-31T14:51:13.861Z,11.44
2022-12-31T14:53:51.359Z,11.40
2022-12-31T14:56:30.669Z,11.34
2022-12-31T14:59:01.676Z,10.92
2022-12-31T15:01:29.335Z,11.04
2022-12-31T15:03:58.183Z,11.06
2022-12-31T15:06:41.062Z,11.05
2022-12-31T15:09:11.316Z,11.24
2022-12-31T15:12:01.023Z,10.99
2022-12-31T15:14:54.367Z,11.04
2022-12-31T15:17:34.615Z,10.93
2022-12-31T15:20:27.574Z,10.98
2022-12-31T15:22:55.267Z,10.96
2022-12-31T15:25:41.058Z,10.89
2022-12-31T15:28:26.961Z,10.96
2022-12-31T15:30:54.853Z,10.95
2022-12-31T15:33:39.219Z,10.95
2022-12-31T15:36:17.897Z,11.06
2022-12-31T15:38:45.646Z,10.74
2022-12-31T15:41:19.941Z,10.90
2022-12-31T15:43:57.155Z,10.96
2022-12-31T15:46:33.776Z,10.95
2022-12-31T15:49:11.739Z,10.97
2022-12-31T15:51:56.086Z,10.93
2022-12-31T15:54:35.686Z,10.77
2022-12-31T15:57:07.290Z,10.75
2022-12-31T15:59:38.343Z,10.78
2022-12-31T16:02:20.164Z,10.73
2022-12-31T16:04:47.927Z,10.55
2022-12-31T16:07:15.392Z,10.71
2022-12-31T16:09:42.823Z,10.65
2022-12-31T16:12:12.589Z,10.67
2022-12-31T16:14:42.588Z,10.66
2022-12-31T16:17:28.438Z,10.64
2022-12-31T16:19:56.025Z,10.72
2022-12-31T16:22:37.658Z,10.71
2022-12-31T16:25:34.253Z,10.84
2022-12-31T16:27:53.511Z,10.74
2022-12-31T16:30:35.670Z,10.60
2022-12-31T16:33:06.163Z,10.66
2022-12-31T16:35:34.979Z,10.50
2022-12-31T16:38:03.638Z,10.41
2022-12-31T16:40:31.149Z,10.54
2022-12-31T16:42:58.515Z,10.28
2022-12-31T16:45:36.382Z,10.36
2022-12-31T16:48:18.256Z,10.23
2022-12-31T16:50:53.355Z,10.29
2022-12-31T16:53:23.884Z,10.19
2022-12-31T16:56:01.481Z,10.18
2022-12-31T16:58:30.794Z,10.16
2022-12-31T17:01:23.741Z,10.22
2022-12-31T17:03:52.901Z,10.24
2022-12-31T17:06:20.958Z,10.28
2022-12-31T17:09:00.834Z,10.02
2022-12-31T17:11:35.006Z,9.84
2022-12-31T17:14:08.315Z,9.18
2022-12-31T17:16:37.771Z,9.53
2022-12-31T17:19:05.129Z,9.94
2022-12-31T17:21:32.560Z,9.82
2022-12-31T17:24:06.617Z,9.84
2022-12-31T17:26:35.047Z,9.70
2022-12-31T17:29:03.839Z,9.85
2022-12-31T17:31:38.182Z,9.97
2022-12-31T17:34:13.151Z,9.79
2022-12-31T17:37:14.464Z,10.08
2022-12-31T17:39:53.115Z,10.02
2022-12-31T17:42:38.645Z,10.01
2022-12-31T17:45:08.366Z,10.19
2022-12-31T17:47:40.194Z,10.10
2022-12-31T17:50:19.214Z,10.07
2022-12-31T17:52:46.749Z,10.13
2022-12-31T17:55:14.552Z,10.09
2022-12-31T17:57:49.650Z,10.28
2022-12-31T18:00:22.370Z,10.14
2022-12-31T18:02:50.272Z,10.22
2022-12-31T18:05:22.107Z,10.02
2022-12-31T18:07:50.209Z,10.04
2022-12-31T18:10:19.261Z,10.03
2022-12-31T18:12:47.123Z,10.07
2022-12-31T18:15:16.115Z,10.00
2022-12-31T18:17:43.543Z,10.00
2022-12-31T18:20:11.063Z,9.97
2022-12-31T18:22:39.195Z,9.96
2022-12-31T18:25:07.481Z,10.02
2022-12-31T18:27:34.970Z,9.93
2022-12-31T18:30:05.648Z,9.92
2022-12-31T18:32:35.415Z,9.90
2022-12-31T18:35:03.279Z,9.73
2022-12-31T18:37:30.651Z,9.77
2022-12-31T18:39:58.005Z,9.83
2022-12-31T18:42:26.231Z,9.71
2022-12-31T18:44:53.587Z,9.82
2022-12-31T18:47:23.238Z,9.79
2022-12-31T18:49:50.985Z,9.70
2022-12-31T18:52:19.827Z,9.79
2022-12-31T18:54:47.240Z,9.64
2022-12-31T18:57:15.381Z,9.65
2022-12-31T18:59:42.750Z,9.73
2022-12-31T19:02:18.627Z,9.65
2022-12-31T19:04:46.976Z,9.70
2022-12-31T19:07:14.402Z,9.46
2022-12-31T19:09:46.283Z,9.36
2022-12-31T19:12:14.774Z,9.37
2022-12-31T19:14:42.172Z,9.36
2022-12-31T19:19:36.040Z,9.32
2022-12-31T19:22:03.434Z,9.51
2022-12-31T19:24:30.889Z,9.35
2022-12-31T19:26:58.628Z,9.54
2022-12-31T19:29:27.074Z,9.08
2022-12-31T19:31:54.624Z,9.28
2022-12-31T19:34:22.332Z,9.22
2022-12-31T19:36:49.696Z,9.13
2022-12-31T19:39:18.436Z,9.23
2022-12-31T19:41:47.521Z,9.27
2022-12-31T19:44:17.269Z,9.21
2022-12-31T19:46:44.823Z,9.00
2022-12-31T19:49:13.237Z,9.10
2022-12-31T19:51:40.888Z,9.16
2022-12-31T19:54:08.388Z,9.05
2022-12-31T19:56:36.041Z,9.23
2022-12-31T19:59:06.970Z,9.13
2022-12-31T20:01:34.521Z,9.03
2022-12-31T20:04:02.257Z,9.07
2022-12-31T20:06:29.795Z,8.95
2022-12-31T20:08:57.196Z,9.15
2022-12-31T20:11:24.897Z,9.00
2022-12-31T20:13:53.581Z,9.01
2022-12-31T20:16:24.466Z,9.10
2022-12-31T20:18:52.321Z,9.13
2022-12-31T20:21:24.309Z,9.10
2022-12-31T20:23:52.587Z,9.12
2022-12-31T20:26:20.210Z,9.13
2022-12-31T20:28:47.588Z,9.16
2022-12-31T20:31:16.938Z,9.25
2022-12-31T20:33:44.731Z,9.19
2022-12-31T20:36:13.431Z,9.25
2022-12-31T20:38:41.154Z,9.24
2022-12-31T20:41:13.220Z,9.24
2022-12-31T20:43:40.876Z,9.14
2022-12-31T20:46:14.959Z,9.11
2022-12-31T20:48:45.761Z,9.06
2022-12-31T20:51:14.075Z,9.16
2022-12-31T20:53:46.366Z,9.13
2022-12-31T20:56:14.023Z,9.06
2022-12-31T20:58:41.573Z,9.11
2022-12-31T21:01:09.447Z,8.96
2022-12-31T21:04:04.145Z,9.16
2022-12-31T21:06:25.514Z,8.81
2022-12-31T21:08:54.827Z,8.90
2022-12-31T21:11:40.795Z,8.76
2022-12-31T21:14:08.404Z,8.81
2022-12-31T21:16:35.847Z,8.71
2022-12-31T21:19:03.376Z,8.35
2022-12-31T21:21:31.087Z,8.36
2022-12-31T21:23:58.499Z,8.73
2022-12-31T21:26:25.859Z,8.63
2022-12-31T21:28:53.735Z,8.67
2022-12-31T21:31:21.135Z,8.60
2022-12-31T21:33:48.679Z,8.73
2022-12-31T21:36:16.320Z,8.40
2022-12-31T21:38:44.160Z,8.45
2022-12-31T21:41:33.638Z,8.55
2022-12-31T21:44:02.224Z,8.63
2022-12-31T21:46:29.812Z,8.52
2022-12-31T21:48:57.878Z,8.42
2022-12-31T21:51:25.650Z,8.55
2022-12-31T21:53:53.032Z,8.51
2022-12-31T21:56:21.328Z,8.47
2022-12-31T21:59:14.604Z,8.45
2022-12-31T22:02:02.393Z,8.33
2022-12-31T22:07:17.568Z,8.54
2022-12-31T22:09:45.294Z,8.39
2022-12-31T22:12:12.630Z,8.55
2022-12-31T22:14:40.026Z,8.56
2022-12-31T22:17:27.752Z,8.46
2022-12-31T22:22:42.730Z,8.41
2022-12-31T22:25:10.098Z,8.52
2022-12-31T22:27:37.445Z,8.33
2022-12-31T22:30:05.722Z,8.54
2022-12-31T22:32:33.146Z,8.39
2022-12-31T22:35:00.471Z,8.23
2022-12-31T22:37:55.796Z,8.00
2022-12-31T22:40:15.814Z,8.28
2022-12-31T22:42:43.473Z,8.32
2022-12-31T22:45:11.170Z,8.15
2022-12-31T22:47:38.495Z,8.23
2022-12-31T22:50:06.774Z,8.20
2022-12-31T22:52:34.233Z,7.96
2022-12-31T22:55:01.600Z,8.12
2022-12-31T22:57:29.240Z,8.11
2022-12-31T22:59:56.736Z,8.30
2022-12-31T23:02:24.120Z,8.01
2022-12-31T23:04:51.767Z,8.08
2022-12-31T23:07:19.113Z,8.30
2022-12-31T23:10:05.376Z,8.07
2022-12-31T23:12:32.845Z,8.07
2022-12-31T23:15:19.310Z,7.82
2022-12-31T23:18:05.875Z,7.74
2022-12-31T23:20:51.824Z,7.84
2022-12-31T23:23:19.550Z,7.57
2022-12-31T23:25:48.598Z,7.65
2022-12-31T23:28:18.101Z,7.61
2022-12-31T23:30:45.876Z,7.67
2022-12-31T23:33:15.485Z,7.74
2022-12-31T23:35:43.007Z,7.82
2022-12-31T23:38:10.652Z,7.80
2022-12-31T23:40:38.032Z,7.77
2022-12-31T23:43:06.587Z,7.49
2022-12-31T23:45:34.612Z,7.23
2022-12-31T23:48:02.266Z,7.56
2022-12-31T23:50:29.620Z,7.57
2022-12-31T23:52:57.254Z,7.66
2022-12-31T23:55:24.670Z,7.83
2022-12-31T23:57:52.014Z,7.52
